sensor_id;sensor_type;location;lat;lon;timestamp;pressure;altitude;pressure_sealevel;temperature;humidity
61761;BME280;47664;51.660;-0.100;2023-04-25T00:00:22;100837.17;;;5.98;53.32
61761;BME280;47664;51.660;-0.100;2023-04-25T00:02:49;100848.68;;;5.63;53.53
61761;BME280;47664;51.660;-0.100;2023-04-25T00:05:17;100857.35;;;5.90;53.48
61761;BME280;47664;51.660;-0.100;2023-04-25T00:07:44;100860.71;;;5.41;53.66
61761;BME280;47664;51.660;-0.100;2023-04-25T00:10:11;100862.23;;;5.91;53.57
61761;BME280;47664;51.660;-0.100;2023-04-25T00:12:40;100861.91;;;5.18;53.47
61761;BME280;47664;51.660;-0.100;2023-04-25T00:15:08;100860.48;;;5.72;53.13
61761;BME280;47664;51.660;-0.100;2023-04-25T00:17:36;100860.03;;;5.21;53.05
61761;BME280;47664;51.660;-0.100;2023-04-25T00:20:04;100857.54;;;5.72;52.57
61761;BME280;47664;51.660;-0.100;2023-04-25T00:22:33;100859.71;;;5.68;52.54
61761;BME280;47664;51.660;-0.100;2023-04-25T00:24:59;100857.68;;;5.81;52.43
61761;BME280;47664;51.660;-0.100;2023-04-25T00:27:27;100859.59;;;5.80;53.14
61761;BME280;47664;51.660;-0.100;2023-04-25T00:29:55;100857.60;;;5.42;54.14
61761;BME280;47664;51.660;-0.100;2023-04-25T00:32:21;100859.87;;;5.42;54.00
61761;BME280;47664;51.660;-0.100;2023-04-25T00:34:48;100857.39;;;5.45;53.76
61761;BME280;47664;51.660;-0.100;2023-04-25T00:37:16;100851.62;;;5.47;53.27
61761;BME280;47664;51.660;-0.100;2023-04-25T00:39:43;100848.66;;;5.28;53.29
61761;BME280;47664;51.660;-0.100;2023-04-25T00:42:10;100845.12;;;5.55;52.99
61761;BME280;47664;51.660;-0.100;2023-04-25T00:44:38;100843.61;;;4.95;52.77
61761;BME280;47664;51.660;-0.100;2023-04-25T00:47:06;100841.64;;;5.32;52.37
61761;BME280;47664;51.660;-0.100;2023-04-25T00:49:33;100843.45;;;4.90;52.62
61761;BME280;47664;51.660;-0.100;2023-04-25T00:52:01;100850.36;;;5.24;52.56
61761;BME280;47664;51.660;-0.100;2023-04-25T00:54:28;100853.44;;;5.16;52.85
61761;BME280;47664;51.660;-0.100;2023-04-25T00:56:56;100858.11;;;5.48;52.98
61761;BME280;47664;51.660;-0.100;2023-04-25T00:59:24;100861.08;;;5.21;52.64
61761;BME280;47664;51.660;-0.100;2023-04-25T01:01:51;100866.91;;;4.88;53.04
61761;BME280;47664;51.660;-0.100;2023-04-25T01:04:19;100866.34;;;4.84;52.56
61761;BME280;47664;51.660;-0.100;2023-04-25T01:06:51;100874.14;;;4.67;52.95
61761;BME280;47664;51.660;-0.100;2023-04-25T01:09:19;100878.08;;;5.12;52.36
61761;BME280;47664;51.660;-0.100;2023-04-25T01:11:46;100878.83;;;4.82;52.33
61761;BME280;47664;51.660;-0.100;2023-04-25T01:14:13;100876.90;;;5.20;52.43
61761;BME280;47664;51.660;-0.100;2023-04-25T01:16:40;100879.52;;;4.18;52.21
61761;BME280;47664;51.660;-0.100;2023-04-25T01:19:09;100880.00;;;5.38;52.61
61761;BME280;47664;51.660;-0.100;2023-04-25T01:21:37;100882.93;;;5.14;52.01
61761;BME280;47664;51.660;-0.100;2023-04-25T01:24:05;100881.45;;;5.32;51.88
61761;BME280;47664;51.660;-0.100;2023-04-25T01:26:34;100876.63;;;4.51;52.29
61761;BME280;47664;51.660;-0.100;2023-04-25T01:29:01;100875.17;;;4.91;52.58
61761;BME280;47664;51.660;-0.100;2023-04-25T01:31:32;100879.69;;;4.85;52.51
61761;BME280;47664;51.660;-0.100;2023-04-25T01:34:00;100879.16;;;5.11;52.34
61761;BME280;47664;51.660;-0.100;2023-04-25T01:36:28;100882.20;;;5.14;51.93
61761;BME280;47664;51.660;-0.100;2023-04-25T01:38:55;100884.51;;;4.78;51.91
61761;BME280;47664;51.660;-0.100;2023-04-25T01:41:23;100888.37;;;5.18;51.88
61761;BME280;47664;51.660;-0.100;2023-04-25T01:43:50;100888.48;;;5.27;51.91
61761;BME280;47664;51.660;-0.100;2023-04-25T01:46:17;100885.77;;;5.48;51.78
61761;BME280;47664;51.660;-0.100;2023-04-25T01:48:45;100891.20;;;4.65;52.05
61761;BME280;47664;51.660;-0.100;2023-04-25T01:51:12;100895.94;;;4.74;52.23
61761;BME280;47664;51.660;-0.100;2023-04-25T01:53:40;100898.10;;;4.56;52.52
61761;BME280;47664;51.660;-0.100;2023-04-25T01:56:12;100899.90;;;5.18;52.60
61761;BME280;47664;51.660;-0.100;2023-04-25T01:58:45;100899.93;;;4.08;52.59
61761;BME280;47664;51.660;-0.100;2023-04-25T02:01:12;100898.86;;;5.15;52.66
61761;BME280;47664;51.660;-0.100;2023-04-25T02:03:39;100902.87;;;4.23;52.40
61761;BME280;47664;51.660;-0.100;2023-04-25T02:06:07;100902.96;;;5.11;52.12
61761;BME280;47664;51.660;-0.100;2023-04-25T02:08:35;100903.02;;;4.48;52.05
61761;BME280;47664;51.660;-0.100;2023-04-25T02:11:02;100906.17;;;4.51;52.51
61761;BME280;47664;51.660;-0.100;2023-04-25T02:13:30;100906.41;;;4.27;53.31
61761;BME280;47664;51.660;-0.100;2023-04-25T02:15:57;100905.66;;;4.81;52.50
61761;BME280;47664;51.660;-0.100;2023-04-25T02:18:24;100904.74;;;4.87;52.66
61761;BME280;47664;51.660;-0.100;2023-04-25T02:20:51;100908.44;;;4.36;53.21
61761;BME280;47664;51.660;-0.100;2023-04-25T02:23:18;100908.94;;;4.57;53.37
61761;BME280;47664;51.660;-0.100;2023-04-25T02:25:46;100909.62;;;4.32;53.01
61761;BME280;47664;51.660;-0.100;2023-04-25T02:28:13;100908.83;;;4.58;52.88
61761;BME280;47664;51.660;-0.100;2023-04-25T02:30:40;100907.09;;;3.90;52.92
61761;BME280;47664;51.660;-0.100;2023-04-25T02:33:07;100909.15;;;4.63;52.99
61761;BME280;47664;51.660;-0.100;2023-04-25T02:35:35;100908.23;;;3.84;53.10
61761;BME280;47664;51.660;-0.100;2023-04-25T02:38:02;100902.25;;;4.48;53.36
61761;BME280;47664;51.660;-0.100;2023-04-25T02:40:30;100900.35;;;4.36;52.69
61761;BME280;47664;51.660;-0.100;2023-04-25T02:42:57;100902.83;;;4.68;52.65
61761;BME280;47664;51.660;-0.100;2023-04-25T02:45:24;100901.31;;;4.55;52.90
61761;BME280;47664;51.660;-0.100;2023-04-25T02:47:51;100900.55;;;4.42;52.57
61761;BME280;47664;51.660;-0.100;2023-04-25T02:50:19;100900.44;;;5.04;52.11
61761;BME280;47664;51.660;-0.100;2023-04-25T02:52:46;100898.28;;;4.39;52.44
61761;BME280;47664;51.660;-0.100;2023-04-25T02:55:13;100901.93;;;4.62;52.20
61761;BME280;47664;51.660;-0.100;2023-04-25T02:57:41;100903.28;;;3.70;52.29
61761;BME280;47664;51.660;-0.100;2023-04-25T03:00:09;100910.75;;;4.16;52.71
61761;BME280;47664;51.660;-0.100;2023-04-25T03:02:36;100913.94;;;4.07;52.49
61761;BME280;47664;51.660;-0.100;2023-04-25T03:05:04;100916.92;;;4.52;52.30
61761;BME280;47664;51.660;-0.100;2023-04-25T03:07:31;100916.66;;;4.30;52.63
61761;BME280;47664;51.660;-0.100;2023-04-25T03:09:59;100922.46;;;4.36;52.33
61761;BME280;47664;51.660;-0.100;2023-04-25T03:12:27;100926.77;;;4.65;52.11
61761;BME280;47664;51.660;-0.100;2023-04-25T03:14:54;100922.63;;;4.09;52.53
61761;BME280;47664;51.660;-0.100;2023-04-25T03:17:21;100925.18;;;4.37;52.56
61761;BME280;47664;51.660;-0.100;2023-04-25T03:19:48;100930.85;;;4.23;52.31
61761;BME280;47664;51.660;-0.100;2023-04-25T03:22:15;100931.22;;;4.64;52.51
61761;BME280;47664;51.660;-0.100;2023-04-25T03:24:49;100930.05;;;3.93;52.34
61761;BME280;47664;51.660;-0.100;2023-04-25T03:27:16;100926.53;;;4.24;53.35
61761;BME280;47664;51.660;-0.100;2023-04-25T03:29:43;100926.69;;;3.96;53.49
61761;BME280;47664;51.660;-0.100;2023-04-25T03:32:10;100925.54;;;3.63;53.60
61761;BME280;47664;51.660;-0.100;2023-04-25T03:34:37;100920.95;;;3.22;54.25
61761;BME280;47664;51.660;-0.100;2023-04-25T03:37:05;100925.36;;;4.04;53.63
61761;BME280;47664;51.660;-0.100;2023-04-25T03:39:33;100933.95;;;3.51;54.31
61761;BME280;47664;51.660;-0.100;2023-04-25T03:42:00;100937.70;;;3.69;54.36
61761;BME280;47664;51.660;-0.100;2023-04-25T03:44:27;100938.32;;;3.70;54.39
61761;BME280;47664;51.660;-0.100;2023-04-25T03:46:55;100934.76;;;3.61;53.93
61761;BME280;47664;51.660;-0.100;2023-04-25T03:49:22;100937.28;;;3.36;54.54
61761;BME280;47664;51.660;-0.100;2023-04-25T03:51:49;100939.38;;;3.43;54.12
61761;BME280;47664;51.660;-0.100;2023-04-25T03:54:16;100937.69;;;3.89;53.76
61761;BME280;47664;51.660;-0.100;2023-04-25T03:56:43;100937.76;;;3.55;53.02
61761;BME280;47664;51.660;-0.100;2023-04-25T03:59:10;100937.54;;;3.54;53.17
61761;BME280;47664;51.660;-0.100;2023-04-25T04:01:37;100936.13;;;3.23;53.42
61761;BME280;47664;51.660;-0.100;2023-04-25T04:04:04;100940.19;;;3.96;53.33
61761;BME280;47664;51.660;-0.100;2023-04-25T04:06:36;100940.42;;;3.76;53.01
61761;BME280;47664;51.660;-0.100;2023-04-25T04:09:04;100934.95;;;3.93;53.23
61761;BME280;47664;51.660;-0.100;2023-04-25T04:11:37;100942.65;;;3.83;52.85
61761;BME280;47664;51.660;-0.100;2023-04-25T04:14:05;100950.20;;;4.02;52.99
61761;BME280;47664;51.660;-0.100;2023-04-25T04:16:33;100956.45;;;3.36;53.30
61761;BME280;47664;51.660;-0.100;2023-04-25T04:19:00;100964.58;;;3.69;53.46
61761;BME280;47664;51.660;-0.100;2023-04-25T04:21:28;100962.68;;;3.70;53.27
61761;BME280;47664;51.660;-0.100;2023-04-25T04:23:56;100966.02;;;3.72;53.20
61761;BME280;47664;51.660;-0.100;2023-04-25T04:26:23;100964.29;;;3.98;53.16
61761;BME280;47664;51.660;-0.100;2023-04-25T04:28:50;100963.56;;;3.50;53.09
61761;BME280;47664;51.660;-0.100;2023-04-25T04:31:17;100964.34;;;3.52;54.22
61761;BME280;47664;51.660;-0.100;2023-04-25T04:33:44;100967.77;;;2.47;55.05
61761;BME280;47664;51.660;-0.100;2023-04-25T04:36:12;100969.81;;;3.25;54.98
61761;BME280;47664;51.660;-0.100;2023-04-25T04:38:41;100974.51;;;2.35;55.04
61761;BME280;47664;51.660;-0.100;2023-04-25T04:41:09;100980.99;;;3.29;54.89
61761;BME280;47664;51.660;-0.100;2023-04-25T04:43:36;100983.14;;;2.61;55.27
61761;BME280;47664;51.660;-0.100;2023-04-25T04:46:03;100986.94;;;2.65;55.94
61761;BME280;47664;51.660;-0.100;2023-04-25T04:48:31;100999.87;;;2.55;56.10
61761;BME280;47664;51.660;-0.100;2023-04-25T04:50:59;101009.20;;;2.38;56.74
61761;BME280;47664;51.660;-0.100;2023-04-25T04:53:27;101012.33;;;2.63;56.50
61761;BME280;47664;51.660;-0.100;2023-04-25T04:55:54;101015.16;;;2.68;56.35
61761;BME280;47664;51.660;-0.100;2023-04-25T04:58:21;101018.29;;;3.38;55.58
61761;BME280;47664;51.660;-0.100;2023-04-25T05:00:48;101018.38;;;2.68;54.90
61761;BME280;47664;51.660;-0.100;2023-04-25T05:03:15;101025.49;;;3.50;55.41
61761;BME280;47664;51.660;-0.100;2023-04-25T05:05:42;101028.93;;;2.76;55.51
61761;BME280;47664;51.660;-0.100;2023-04-25T05:08:09;101022.34;;;3.52;54.65
61761;BME280;47664;51.660;-0.100;2023-04-25T05:10:37;101025.90;;;2.74;54.56
61761;BME280;47664;51.660;-0.100;2023-04-25T05:13:03;101026.39;;;3.48;54.65
61761;BME280;47664;51.660;-0.100;2023-04-25T05:15:31;101028.06;;;3.08;54.26
61761;BME280;47664;51.660;-0.100;2023-04-25T05:17:58;101030.38;;;3.43;53.68
61761;BME280;47664;51.660;-0.100;2023-04-25T05:20:26;101034.77;;;3.40;54.00
61761;BME280;47664;51.660;-0.100;2023-04-25T05:22:53;101038.14;;;3.54;54.15
61761;BME280;47664;51.660;-0.100;2023-04-25T05:25:20;101046.26;;;3.69;54.50
61761;BME280;47664;51.660;-0.100;2023-04-25T05:27:47;101049.58;;;2.94;54.67
61761;BME280;47664;51.660;-0.100;2023-04-25T05:30:14;101047.18;;;3.55;54.72
61761;BME280;47664;51.660;-0.100;2023-04-25T05:32:42;101054.97;;;3.75;54.56
61761;BME280;47664;51.660;-0.100;2023-04-25T05:35:09;101063.49;;;3.50;53.82
61761;BME280;47664;51.660;-0.100;2023-04-25T05:37:36;101073.53;;;3.40;53.70
61761;BME280;47664;51.660;-0.100;2023-04-25T05:40:05;101081.02;;;4.40;52.75
61761;BME280;47664;51.660;-0.100;2023-04-25T05:42:33;101084.16;;;3.72;52.35
61761;BME280;47664;51.660;-0.100;2023-04-25T05:45:00;101087.54;;;4.72;51.91
61761;BME280;47664;51.660;-0.100;2023-04-25T05:47:28;101087.18;;;4.76;51.25
61761;BME280;47664;51.660;-0.100;2023-04-25T05:49:56;101089.34;;;4.37;51.96
61761;BME280;47664;51.660;-0.100;2023-04-25T05:52:23;101088.95;;;4.65;51.89
61761;BME280;47664;51.660;-0.100;2023-04-25T05:54:50;101083.84;;;4.20;51.67
61761;BME280;47664;51.660;-0.100;2023-04-25T05:57:21;101084.46;;;4.37;51.86
61761;BME280;47664;51.660;-0.100;2023-04-25T05:59:49;101083.48;;;4.41;51.51
61761;BME280;47664;51.660;-0.100;2023-04-25T06:02:16;101081.63;;;4.58;51.71
61761;BME280;47664;51.660;-0.100;2023-04-25T06:04:44;101083.88;;;4.05;51.94
61761;BME280;47664;51.660;-0.100;2023-04-25T06:07:11;101091.44;;;4.06;52.25
61761;BME280;47664;51.660;-0.100;2023-04-25T06:09:38;101092.54;;;3.35;52.84
61761;BME280;47664;51.660;-0.100;2023-04-25T06:12:06;101094.24;;;4.14;52.72
61761;BME280;47664;51.660;-0.100;2023-04-25T06:14:34;101093.87;;;4.00;52.64
61761;BME280;47664;51.660;-0.100;2023-04-25T06:17:02;101090.02;;;4.47;52.19
61761;BME280;47664;51.660;-0.100;2023-04-25T06:19:30;101086.17;;;4.54;51.71
61761;BME280;47664;51.660;-0.100;2023-04-25T06:21:57;101087.79;;;4.92;51.34
61761;BME280;47664;51.660;-0.100;2023-04-25T06:24:25;101085.62;;;4.86;50.16
61761;BME280;47664;51.660;-0.100;2023-04-25T06:26:53;101094.49;;;4.59;51.49
61761;BME280;47664;51.660;-0.100;2023-04-25T06:29:20;101097.95;;;4.67;51.61
61761;BME280;47664;51.660;-0.100;2023-04-25T06:31:47;101097.17;;;4.95;52.11
61761;BME280;47664;51.660;-0.100;2023-04-25T06:34:14;101094.48;;;5.13;51.84
61761;BME280;47664;51.660;-0.100;2023-04-25T06:36:41;101100.97;;;4.22;51.31
61761;BME280;47664;51.660;-0.100;2023-04-25T06:39:09;101109.43;;;5.47;50.67
61761;BME280;47664;51.660;-0.100;2023-04-25T06:41:37;101112.06;;;4.37;50.63
61761;BME280;47664;51.660;-0.100;2023-04-25T06:44:05;101114.86;;;5.72;49.98
61761;BME280;47664;51.660;-0.100;2023-04-25T06:46:32;101114.99;;;5.13;49.65
61761;BME280;47664;51.660;-0.100;2023-04-25T06:48:59;101114.98;;;5.37;49.57
61761;BME280;47664;51.660;-0.100;2023-04-25T06:51:26;101116.79;;;5.89;49.76
61761;BME280;47664;51.660;-0.100;2023-04-25T06:53:53;101115.11;;;5.79;50.03
61761;BME280;47664;51.660;-0.100;2023-04-25T06:56:20;101119.45;;;6.14;50.86
61761;BME280;47664;51.660;-0.100;2023-04-25T06:58:46;101127.71;;;5.82;50.06
61761;BME280;47664;51.660;-0.100;2023-04-25T07:01:14;101131.49;;;5.93;50.79
61761;BME280;47664;51.660;-0.100;2023-04-25T07:03:41;101130.88;;;5.44;50.03
61761;BME280;47664;51.660;-0.100;2023-04-25T07:06:08;101142.63;;;6.27;49.26
61761;BME280;47664;51.660;-0.100;2023-04-25T07:08:36;101139.53;;;5.87;48.85
61761;BME280;47664;51.660;-0.100;2023-04-25T07:11:03;101139.78;;;6.19;48.38
61761;BME280;47664;51.660;-0.100;2023-04-25T07:13:31;101147.70;;;6.20;49.35
61761;BME280;47664;51.660;-0.100;2023-04-25T07:15:59;101149.73;;;6.28;49.33
61761;BME280;47664;51.660;-0.100;2023-04-25T07:18:27;101147.42;;;6.31;48.63
61761;BME280;47664;51.660;-0.100;2023-04-25T07:20:54;101134.68;;;6.81;49.17
61761;BME280;47664;51.660;-0.100;2023-04-25T07:23:22;101134.50;;;6.89;47.60
61761;BME280;47664;51.660;-0.100;2023-04-25T07:25:50;101144.53;;;6.52;48.00
61761;BME280;47664;51.660;-0.100;2023-04-25T07:28:17;101146.46;;;6.91;47.47
61761;BME280;47664;51.660;-0.100;2023-04-25T07:30:44;101154.65;;;6.50;47.39
61761;BME280;47664;51.660;-0.100;2023-04-25T07:33:11;101156.67;;;6.95;47.38
61761;BME280;47664;51.660;-0.100;2023-04-25T07:35:39;101154.30;;;6.33;47.63
61761;BME280;47664;51.660;-0.100;2023-04-25T07:38:06;101158.83;;;7.53;47.11
61761;BME280;47664;51.660;-0.100;2023-04-25T07:40:34;101157.44;;;7.15;46.81
61761;BME280;47664;51.660;-0.100;2023-04-25T07:43:01;101157.54;;;7.16;47.01
61761;BME280;47664;51.660;-0.100;2023-04-25T07:45:28;101162.67;;;7.53;47.19
61761;BME280;47664;51.660;-0.100;2023-04-25T07:47:56;101162.42;;;7.49;46.41
61761;BME280;47664;51.660;-0.100;2023-04-25T07:50:23;101170.01;;;7.53;47.00
61761;BME280;47664;51.660;-0.100;2023-04-25T07:52:50;101166.12;;;7.45;47.07
61761;BME280;47664;51.660;-0.100;2023-04-25T07:55:17;101168.67;;;7.26;46.91
61761;BME280;47664;51.660;-0.100;2023-04-25T07:57:44;101163.79;;;7.30;46.53
61761;BME280;47664;51.660;-0.100;2023-04-25T08:00:13;101170.21;;;7.71;46.18
61761;BME280;47664;51.660;-0.100;2023-04-25T08:02:40;101177.28;;;7.02;46.94
61761;BME280;47664;51.660;-0.100;2023-04-25T08:05:08;101180.91;;;7.76;46.07
61761;BME280;47664;51.660;-0.100;2023-04-25T08:07:35;101185.10;;;7.22;46.12
61761;BME280;47664;51.660;-0.100;2023-04-25T08:10:03;101185.96;;;7.84;45.96
61761;BME280;47664;51.660;-0.100;2023-04-25T08:12:31;101190.06;;;7.59;46.56
61761;BME280;47664;51.660;-0.100;2023-04-25T08:14:59;101196.43;;;7.62;46.63
61761;BME280;47664;51.660;-0.100;2023-04-25T08:17:27;101201.42;;;7.91;46.26
61761;BME280;47664;51.660;-0.100;2023-04-25T08:19:53;101204.16;;;7.20;45.54
61761;BME280;47664;51.660;-0.100;2023-04-25T08:22:21;101205.32;;;7.77;45.86
61761;BME280;47664;51.660;-0.100;2023-04-25T08:24:48;101207.88;;;7.83;45.25
61761;BME280;47664;51.660;-0.100;2023-04-25T08:27:15;101209.46;;;8.04;44.82
61761;BME280;47664;51.660;-0.100;2023-04-25T08:29:42;101211.74;;;7.60;44.18
61761;BME280;47664;51.660;-0.100;2023-04-25T08:32:09;101213.22;;;8.28;44.05
61761;BME280;47664;51.660;-0.100;2023-04-25T08:34:36;101213.29;;;7.48;44.79
61761;BME280;47664;51.660;-0.100;2023-04-25T08:37:03;101218.53;;;8.00;43.58
61761;BME280;47664;51.660;-0.100;2023-04-25T08:39:30;101218.45;;;8.35;43.89
61761;BME280;47664;51.660;-0.100;2023-04-25T08:41:58;101219.84;;;8.51;43.63
61761;BME280;47664;51.660;-0.100;2023-04-25T08:44:25;101220.59;;;8.70;43.52
61761;BME280;47664;51.660;-0.100;2023-04-25T08:46:53;101222.67;;;8.43;44.26
61761;BME280;47664;51.660;-0.100;2023-04-25T08:49:21;101217.56;;;8.93;43.23
61761;BME280;47664;51.660;-0.100;2023-04-25T08:51:49;101214.62;;;8.93;42.37
61761;BME280;47664;51.660;-0.100;2023-04-25T08:54:18;101215.03;;;8.75;42.17
61761;BME280;47664;51.660;-0.100;2023-04-25T08:56:48;101218.80;;;8.82;41.56
61761;BME280;47664;51.660;-0.100;2023-04-25T08:59:17;101215.96;;;8.98;41.97
61761;BME280;47664;51.660;-0.100;2023-04-25T09:01:45;101213.42;;;8.50;42.18
61761;BME280;47664;51.660;-0.100;2023-04-25T09:04:12;101211.33;;;8.67;41.92
61761;BME280;47664;51.660;-0.100;2023-04-25T09:06:40;101210.34;;;7.59;41.36
61761;BME280;47664;51.660;-0.100;2023-04-25T09:09:08;101209.98;;;8.52;41.50
61761;BME280;47664;51.660;-0.100;2023-04-25T09:11:36;101215.02;;;8.29;41.25
61761;BME280;47664;51.660;-0.100;2023-04-25T09:14:12;101209.07;;;8.77;40.76
61761;BME280;47664;51.660;-0.100;2023-04-25T09:16:58;101212.30;;;8.63;40.90
61761;BME280;47664;51.660;-0.100;2023-04-25T09:19:27;101213.07;;;9.31;40.65
61761;BME280;47664;51.660;-0.100;2023-04-25T09:21:55;101214.41;;;9.08;40.54
61761;BME280;47664;51.660;-0.100;2023-04-25T09:24:32;101212.05;;;9.29;40.85
61761;BME280;47664;51.660;-0.100;2023-04-25T09:26:59;101209.70;;;8.86;40.49
61761;BME280;47664;51.660;-0.100;2023-04-25T09:29:29;101207.65;;;8.94;42.20
61761;BME280;47664;51.660;-0.100;2023-04-25T09:32:15;101208.18;;;9.32;41.27
61761;BME280;47664;51.660;-0.100;2023-04-25T09:34:44;101198.64;;;8.80;39.60
61761;BME280;47664;51.660;-0.100;2023-04-25T09:37:16;101198.96;;;9.95;38.59
61761;BME280;47664;51.660;-0.100;2023-04-25T09:39:45;101197.22;;;9.27;39.67
61761;BME280;47664;51.660;-0.100;2023-04-25T09:42:13;101196.64;;;9.81;40.27
61761;BME280;47664;51.660;-0.100;2023-04-25T09:44:43;101192.35;;;9.54;38.68
61761;BME280;47664;51.660;-0.100;2023-04-25T09:47:11;101199.12;;;10.44;39.79
61761;BME280;47664;51.660;-0.100;2023-04-25T09:49:40;101198.91;;;9.75;39.45
61761;BME280;47664;51.660;-0.100;2023-04-25T09:52:07;101202.66;;;9.31;38.89
61761;BME280;47664;51.660;-0.100;2023-04-25T09:54:35;101208.32;;;8.51;39.09
61761;BME280;47664;51.660;-0.100;2023-04-25T09:57:09;101211.91;;;9.22;40.07
61761;BME280;47664;51.660;-0.100;2023-04-25T09:59:39;101207.14;;;8.04;38.34
61761;BME280;47664;51.660;-0.100;2023-04-25T10:02:11;101200.34;;;9.38;37.47
61761;BME280;47664;51.660;-0.100;2023-04-25T10:04:39;101201.40;;;8.61;37.92
61761;BME280;47664;51.660;-0.100;2023-04-25T10:07:08;101199.88;;;10.29;36.66
61761;BME280;47664;51.660;-0.100;2023-04-25T10:09:37;101198.36;;;9.48;35.65
61761;BME280;47664;51.660;-0.100;2023-04-25T10:12:05;101196.18;;;9.49;34.76
61761;BME280;47664;51.660;-0.100;2023-04-25T10:14:33;101200.85;;;8.73;36.72
61761;BME280;47664;51.660;-0.100;2023-04-25T10:17:01;101198.68;;;9.53;36.58
61761;BME280;47664;51.660;-0.100;2023-04-25T10:19:28;101197.60;;;9.23;37.23
61761;BME280;47664;51.660;-0.100;2023-04-25T10:22:02;101201.44;;;9.57;37.74
61761;BME280;47664;51.660;-0.100;2023-04-25T10:24:31;101205.28;;;9.33;36.66
61761;BME280;47664;51.660;-0.100;2023-04-25T10:26:58;101201.45;;;9.60;36.38
61761;BME280;47664;51.660;-0.100;2023-04-25T10:29:26;101201.19;;;9.81;36.99
61761;BME280;47664;51.660;-0.100;2023-04-25T10:31:53;101196.22;;;9.64;36.27
61761;BME280;47664;51.660;-0.100;2023-04-25T10:34:24;101191.22;;;9.87;36.75
61761;BME280;47664;51.660;-0.100;2023-04-25T10:37:04;101194.96;;;9.92;35.77
61761;BME280;47664;51.660;-0.100;2023-04-25T10:39:33;101197.40;;;9.72;36.11
61761;BME280;47664;51.660;-0.100;2023-04-25T10:42:02;101191.30;;;10.35;33.94
61761;BME280;47664;51.660;-0.100;2023-04-25T10:44:30;101199.74;;;10.74;33.23
61761;BME280;47664;51.660;-0.100;2023-04-25T10:46:59;101200.96;;;9.75;33.49
61761;BME280;47664;51.660;-0.100;2023-04-25T10:49:32;101207.38;;;9.82;34.65
61761;BME280;47664;51.660;-0.100;2023-04-25T10:52:18;101212.55;;;10.18;35.08
61761;BME280;47664;51.660;-0.100;2023-04-25T10:54:47;101215.53;;;9.44;34.55
61761;BME280;47664;51.660;-0.100;2023-04-25T10:57:36;101216.30;;;9.63;32.90
61761;BME280;47664;51.660;-0.100;2023-04-25T11:00:11;101217.80;;;10.19;33.59
61761;BME280;47664;51.660;-0.100;2023-04-25T11:02:42;101205.04;;;9.01;34.52
61761;BME280;47664;51.660;-0.100;2023-04-25T11:05:09;101202.99;;;9.86;35.60
61761;BME280;47664;51.660;-0.100;2023-04-25T11:07:43;101202.00;;;9.09;33.81
61761;BME280;47664;51.660;-0.100;2023-04-25T11:10:12;101205.56;;;9.57;34.25
61761;BME280;47664;51.660;-0.100;2023-04-25T11:12:40;101203.32;;;9.61;32.98
61761;BME280;47664;51.660;-0.100;2023-04-25T11:15:08;101208.21;;;10.10;33.51
61761;BME280;47664;51.660;-0.100;2023-04-25T11:17:36;101204.42;;;9.52;35.15
61761;BME280;47664;51.660;-0.100;2023-04-25T11:20:05;101207.55;;;9.30;34.78
61761;BME280;47664;51.660;-0.100;2023-04-25T11:22:34;101206.18;;;9.38;35.01
61761;BME280;47664;51.660;-0.100;2023-04-25T11:25:05;101205.38;;;10.33;35.26
61761;BME280;47664;51.660;-0.100;2023-04-25T11:27:39;101206.18;;;9.84;34.97
61761;BME280;47664;51.660;-0.100;2023-04-25T11:30:16;101206.17;;;10.44;32.57
61761;BME280;47664;51.660;-0.100;2023-04-25T11:32:43;101201.44;;;9.51;32.01
61761;BME280;47664;51.660;-0.100;2023-04-25T11:35:10;101196.99;;;10.32;32.76
61761;BME280;47664;51.660;-0.100;2023-04-25T11:37:39;101193.48;;;9.08;32.57
61761;BME280;47664;51.660;-0.100;2023-04-25T11:40:08;101192.39;;;10.15;32.98
61761;BME280;47664;51.660;-0.100;2023-04-25T11:42:37;101186.66;;;9.64;33.36
61761;BME280;47664;51.660;-0.100;2023-04-25T11:45:05;101193.66;;;10.29;34.39
61761;BME280;47664;51.660;-0.100;2023-04-25T11:47:33;101192.72;;;9.52;34.65
61761;BME280;47664;51.660;-0.100;2023-04-25T11:50:02;101200.84;;;10.32;33.76
61761;BME280;47664;51.660;-0.100;2023-04-25T11:52:40;101203.19;;;10.39;34.46
61761;BME280;47664;51.660;-0.100;2023-04-25T11:55:10;101206.27;;;10.61;33.57
61761;BME280;47664;51.660;-0.100;2023-04-25T11:57:41;101205.07;;;9.23;33.43
61761;BME280;47664;51.660;-0.100;2023-04-25T12:00:11;101204.27;;;10.13;34.28
61761;BME280;47664;51.660;-0.100;2023-04-25T12:02:41;101205.57;;;10.26;33.16
61761;BME280;47664;51.660;-0.100;2023-04-25T12:05:09;101205.96;;;10.71;32.45
61761;BME280;47664;51.660;-0.100;2023-04-25T12:07:38;101205.73;;;9.90;31.40
61761;BME280;47664;51.660;-0.100;2023-04-25T12:10:06;101211.09;;;10.66;31.46
61761;BME280;47664;51.660;-0.100;2023-04-25T12:12:35;101213.05;;;10.43;31.51
61761;BME280;47664;51.660;-0.100;2023-04-25T12:15:11;101211.86;;;10.63;32.53
61761;BME280;47664;51.660;-0.100;2023-04-25T12:17:39;101212.75;;;9.42;32.42
61761;BME280;47664;51.660;-0.100;2023-04-25T12:20:08;101211.71;;;10.18;31.80
61761;BME280;47664;51.660;-0.100;2023-04-25T12:22:36;101214.36;;;10.32;31.98
61761;BME280;47664;51.660;-0.100;2023-04-25T12:25:04;101218.71;;;10.80;31.16
61761;BME280;47664;51.660;-0.100;2023-04-25T12:27:32;101217.83;;;10.54;31.27
61761;BME280;47664;51.660;-0.100;2023-04-25T12:29:59;101219.40;;;10.76;31.77
61761;BME280;47664;51.660;-0.100;2023-04-25T12:32:28;101224.96;;;10.61;31.75
61761;BME280;47664;51.660;-0.100;2023-04-25T12:34:56;101222.78;;;11.19;31.10
61761;BME280;47664;51.660;-0.100;2023-04-25T12:37:23;101218.23;;;11.12;30.98
61761;BME280;47664;51.660;-0.100;2023-04-25T12:39:51;101220.18;;;10.67;31.60
61761;BME280;47664;51.660;-0.100;2023-04-25T12:42:19;101222.08;;;11.09;30.29
61761;BME280;47664;51.660;-0.100;2023-04-25T12:44:46;101225.62;;;10.95;30.43
61761;BME280;47664;51.660;-0.100;2023-04-25T12:47:13;101225.56;;;11.20;31.01
61761;BME280;47664;51.660;-0.100;2023-04-25T12:49:40;101221.22;;;10.22;31.10
61761;BME280;47664;51.660;-0.100;2023-04-25T12:52:07;101220.92;;;10.92;31.47